Nikolo-Poloma, Russia
Current Conditions -  °F | °C
As of 1:30 PM on Friday 21 Nov 2014 (Local Time) from UUDL Reporting Station
Overcast Overcast  
Wind Chill: 21°   Ceiling: 800
Heat Index: 21°   Visibility: 6mi
Dew Point: 19°   Wind: 2mph
Humidity: 93%   Direction: 240°WSW
Pressure: 30.53"   Gusts: NA
Location:  58.33°N, 43.4°E
Report Text: UUDL 211030Z 24001MPS 9000 OVC008 M06/M07 Q1034 NOSIG RMKQFE767 23000060
Loading
Personal Weather Stations






























Interactive Weather Map New forecast layout! Learn more

10-Day Weather Forecast

Advertisements
Track Severe Weather on mobile